sensor_id;sensor_type;location;lat;lon;timestamp;P1;durP1;ratioP1;P2;durP2;ratioP2
13801;SDS011;6972;51.518;6.918;2023-01-29T00:02:00;48.30;;;28.80;;
13801;SDS011;6972;51.518;6.918;2023-01-29T00:04:27;49.53;;;30.07;;
13801;SDS011;6972;51.518;6.918;2023-01-29T00:06:53;52.07;;;29.83;;
13801;SDS011;6972;51.518;6.918;2023-01-29T00:09:19;50.03;;;29.33;;
13801;SDS011;6972;51.518;6.918;2023-01-29T00:11:45;52.00;;;30.43;;
13801;SDS011;6972;51.518;6.918;2023-01-29T00:14:12;54.30;;;29.47;;
13801;SDS011;6972;51.518;6.918;2023-01-29T00:16:37;50.73;;;28.63;;
13801;SDS011;6972;51.518;6.918;2023-01-29T00:19:03;52.77;;;30.43;;
13801;SDS011;6972;51.518;6.918;2023-01-29T00:21:29;55.53;;;30.57;;
13801;SDS011;6972;51.518;6.918;2023-01-29T00:23:56;51.87;;;30.23;;
13801;SDS011;6972;51.518;6.918;2023-01-29T00:26:22;49.67;;;28.70;;
13801;SDS011;6972;51.518;6.918;2023-01-29T00:28:48;52.50;;;30.60;;
13801;SDS011;6972;51.518;6.918;2023-01-29T00:31:15;52.43;;;31.03;;
13801;SDS011;6972;51.518;6.918;2023-01-29T00:33:44;49.80;;;28.83;;
13801;SDS011;6972;51.518;6.918;2023-01-29T00:36:10;53.03;;;30.17;;
13801;SDS011;6972;51.518;6.918;2023-01-29T00:38:37;55.13;;;31.37;;
13801;SDS011;6972;51.518;6.918;2023-01-29T00:43:51;48.87;;;29.40;;
13801;SDS011;6972;51.518;6.918;2023-01-29T00:46:35;49.23;;;29.37;;
13801;SDS011;6972;51.518;6.918;2023-01-29T00:49:01;50.43;;;29.70;;
13801;SDS011;6972;51.518;6.918;2023-01-29T00:51:29;51.23;;;29.67;;
13801;SDS011;6972;51.518;6.918;2023-01-29T00:53:55;53.17;;;29.83;;
13801;SDS011;6972;51.518;6.918;2023-01-29T00:56:25;48.57;;;28.27;;
13801;SDS011;6972;51.518;6.918;2023-01-29T00:58:51;51.93;;;29.30;;
13801;SDS011;6972;51.518;6.918;2023-01-29T01:01:17;53.03;;;30.03;;
13801;SDS011;6972;51.518;6.918;2023-01-29T01:04:07;51.77;;;29.50;;
13801;SDS011;6972;51.518;6.918;2023-01-29T01:06:38;49.70;;;29.57;;
13801;SDS011;6972;51.518;6.918;2023-01-29T01:09:05;53.90;;;30.33;;
13801;SDS011;6972;51.518;6.918;2023-01-29T01:11:50;50.90;;;29.30;;
13801;SDS011;6972;51.518;6.918;2023-01-29T01:14:16;50.30;;;29.07;;
13801;SDS011;6972;51.518;6.918;2023-01-29T01:16:44;50.63;;;29.53;;
13801;SDS011;6972;51.518;6.918;2023-01-29T01:19:11;55.23;;;31.53;;
13801;SDS011;6972;51.518;6.918;2023-01-29T01:21:37;53.33;;;30.47;;
13801;SDS011;6972;51.518;6.918;2023-01-29T01:24:03;52.07;;;30.77;;
13801;SDS011;6972;51.518;6.918;2023-01-29T01:26:30;52.90;;;30.87;;
13801;SDS011;6972;51.518;6.918;2023-01-29T01:28:58;50.17;;;29.00;;
13801;SDS011;6972;51.518;6.918;2023-01-29T01:31:25;50.40;;;29.37;;
13801;SDS011;6972;51.518;6.918;2023-01-29T01:33:53;52.40;;;30.80;;
13801;SDS011;6972;51.518;6.918;2023-01-29T01:36:19;52.30;;;30.33;;
13801;SDS011;6972;51.518;6.918;2023-01-29T01:38:45;53.07;;;31.10;;
13801;SDS011;6972;51.518;6.918;2023-01-29T01:41:12;52.77;;;29.80;;
13801;SDS011;6972;51.518;6.918;2023-01-29T01:43:49;53.00;;;29.80;;
13801;SDS011;6972;51.518;6.918;2023-01-29T01:46:15;53.97;;;29.47;;
13801;SDS011;6972;51.518;6.918;2023-01-29T01:48:41;52.57;;;29.20;;
13801;SDS011;6972;51.518;6.918;2023-01-29T01:51:08;53.47;;;30.40;;
13801;SDS011;6972;51.518;6.918;2023-01-29T01:53:36;52.93;;;30.50;;
13801;SDS011;6972;51.518;6.918;2023-01-29T01:56:17;50.63;;;30.00;;
13801;SDS011;6972;51.518;6.918;2023-01-29T01:58:53;48.93;;;29.13;;
13801;SDS011;6972;51.518;6.918;2023-01-29T02:01:21;55.60;;;30.87;;
13801;SDS011;6972;51.518;6.918;2023-01-29T02:04:01;53.53;;;29.60;;
13801;SDS011;6972;51.518;6.918;2023-01-29T02:06:51;52.27;;;28.43;;
13801;SDS011;6972;51.518;6.918;2023-01-29T02:09:49;53.60;;;29.13;;
13801;SDS011;6972;51.518;6.918;2023-01-29T02:12:24;53.37;;;30.20;;
13801;SDS011;6972;51.518;6.918;2023-01-29T02:14:50;51.63;;;29.43;;
13801;SDS011;6972;51.518;6.918;2023-01-29T02:17:17;56.83;;;30.63;;
13801;SDS011;6972;51.518;6.918;2023-01-29T02:28:18;51.07;;;29.13;;
13801;SDS011;6972;51.518;6.918;2023-01-29T02:31:01;50.83;;;29.30;;
13801;SDS011;6972;51.518;6.918;2023-01-29T02:33:35;50.63;;;29.17;;
13801;SDS011;6972;51.518;6.918;2023-01-29T02:46:37;52.07;;;28.27;;
13801;SDS011;6972;51.518;6.918;2023-01-29T02:54:44;50.10;;;30.37;;
13801;SDS011;6972;51.518;6.918;2023-01-29T02:57:16;50.67;;;30.07;;
13801;SDS011;6972;51.518;6.918;2023-01-29T02:59:48;53.33;;;30.10;;
13801;SDS011;6972;51.518;6.918;2023-01-29T03:02:48;49.77;;;28.90;;
13801;SDS011;6972;51.518;6.918;2023-01-29T03:05:38;50.27;;;29.23;;
13801;SDS011;6972;51.518;6.918;2023-01-29T03:08:30;55.03;;;31.67;;
13801;SDS011;6972;51.518;6.918;2023-01-29T03:11:04;55.37;;;30.90;;
13801;SDS011;6972;51.518;6.918;2023-01-29T03:16:06;52.30;;;29.63;;
13801;SDS011;6972;51.518;6.918;2023-01-29T03:18:45;53.93;;;28.93;;
13801;SDS011;6972;51.518;6.918;2023-01-29T03:21:29;51.00;;;28.47;;
13801;SDS011;6972;51.518;6.918;2023-01-29T03:24:15;53.77;;;29.97;;
13801;SDS011;6972;51.518;6.918;2023-01-29T03:27:03;55.97;;;29.83;;
13801;SDS011;6972;51.518;6.918;2023-01-29T03:29:53;54.13;;;30.47;;
13801;SDS011;6972;51.518;6.918;2023-01-29T03:32:40;52.83;;;29.73;;
13801;SDS011;6972;51.518;6.918;2023-01-29T03:35:07;51.53;;;29.07;;
13801;SDS011;6972;51.518;6.918;2023-01-29T03:37:41;57.03;;;29.07;;
13801;SDS011;6972;51.518;6.918;2023-01-29T03:40:10;55.57;;;29.70;;
13801;SDS011;6972;51.518;6.918;2023-01-29T03:42:48;58.20;;;30.13;;
13801;SDS011;6972;51.518;6.918;2023-01-29T03:45:26;53.90;;;30.10;;
13801;SDS011;6972;51.518;6.918;2023-01-29T03:48:10;51.20;;;28.47;;
13801;SDS011;6972;51.518;6.918;2023-01-29T03:55:59;49.97;;;28.70;;
13801;SDS011;6972;51.518;6.918;2023-01-29T04:01:10;58.43;;;30.13;;
13801;SDS011;6972;51.518;6.918;2023-01-29T04:04:21;51.33;;;29.47;;
13801;SDS011;6972;51.518;6.918;2023-01-29T04:06:53;51.30;;;27.33;;
13801;SDS011;6972;51.518;6.918;2023-01-29T04:09:33;52.43;;;29.33;;
13801;SDS011;6972;51.518;6.918;2023-01-29T04:12:07;53.23;;;28.50;;
13801;SDS011;6972;51.518;6.918;2023-01-29T04:14:35;49.13;;;28.53;;
13801;SDS011;6972;51.518;6.918;2023-01-29T04:17:03;49.60;;;28.07;;
13801;SDS011;6972;51.518;6.918;2023-01-29T04:19:43;51.83;;;28.03;;
13801;SDS011;6972;51.518;6.918;2023-01-29T04:24:43;47.47;;;28.37;;
13801;SDS011;6972;51.518;6.918;2023-01-29T04:35:14;47.17;;;27.73;;
13801;SDS011;6972;51.518;6.918;2023-01-29T04:37:49;54.40;;;29.87;;
13801;SDS011;6972;51.518;6.918;2023-01-29T04:40:50;52.00;;;28.43;;
13801;SDS011;6972;51.518;6.918;2023-01-29T04:43:24;50.53;;;27.30;;
13801;SDS011;6972;51.518;6.918;2023-01-29T04:48:44;47.43;;;27.23;;
13801;SDS011;6972;51.518;6.918;2023-01-29T04:51:18;48.23;;;27.40;;
13801;SDS011;6972;51.518;6.918;2023-01-29T04:54:05;48.93;;;26.67;;
13801;SDS011;6972;51.518;6.918;2023-01-29T04:59:29;46.77;;;26.93;;
13801;SDS011;6972;51.518;6.918;2023-01-29T05:02:03;43.13;;;25.23;;
13801;SDS011;6972;51.518;6.918;2023-01-29T05:04:33;51.00;;;27.50;;
13801;SDS011;6972;51.518;6.918;2023-01-29T05:07:05;49.73;;;28.50;;
13801;SDS011;6972;51.518;6.918;2023-01-29T05:09:34;48.10;;;27.40;;
13801;SDS011;6972;51.518;6.918;2023-01-29T05:12:01;48.87;;;27.27;;
13801;SDS011;6972;51.518;6.918;2023-01-29T05:14:29;50.27;;;28.60;;
13801;SDS011;6972;51.518;6.918;2023-01-29T05:16:58;55.07;;;29.33;;
13801;SDS011;6972;51.518;6.918;2023-01-29T05:19:29;50.77;;;28.67;;
13801;SDS011;6972;51.518;6.918;2023-01-29T05:21:55;51.53;;;27.73;;
13801;SDS011;6972;51.518;6.918;2023-01-29T05:24:22;50.40;;;28.57;;
13801;SDS011;6972;51.518;6.918;2023-01-29T05:26:51;50.97;;;27.93;;
13801;SDS011;6972;51.518;6.918;2023-01-29T05:29:36;51.00;;;27.40;;
13801;SDS011;6972;51.518;6.918;2023-01-29T05:32:05;53.77;;;28.70;;
13801;SDS011;6972;51.518;6.918;2023-01-29T05:34:31;51.83;;;27.23;;
13801;SDS011;6972;51.518;6.918;2023-01-29T05:36:58;53.97;;;27.43;;
13801;SDS011;6972;51.518;6.918;2023-01-29T05:39:24;54.77;;;29.77;;
13801;SDS011;6972;51.518;6.918;2023-01-29T05:41:49;53.60;;;28.70;;
13801;SDS011;6972;51.518;6.918;2023-01-29T05:44:15;51.83;;;27.80;;
13801;SDS011;6972;51.518;6.918;2023-01-29T05:46:41;51.57;;;29.03;;
13801;SDS011;6972;51.518;6.918;2023-01-29T05:49:07;50.67;;;30.10;;
13801;SDS011;6972;51.518;6.918;2023-01-29T05:51:33;55.77;;;28.43;;
13801;SDS011;6972;51.518;6.918;2023-01-29T05:53:59;48.23;;;29.13;;
13801;SDS011;6972;51.518;6.918;2023-01-29T05:56:25;50.77;;;28.00;;
13801;SDS011;6972;51.518;6.918;2023-01-29T05:58:51;52.57;;;28.20;;
13801;SDS011;6972;51.518;6.918;2023-01-29T06:01:20;50.67;;;28.70;;
13801;SDS011;6972;51.518;6.918;2023-01-29T06:03:48;57.93;;;28.00;;
13801;SDS011;6972;51.518;6.918;2023-01-29T06:06:13;48.33;;;28.77;;
13801;SDS011;6972;51.518;6.918;2023-01-29T06:08:39;57.53;;;29.93;;
13801;SDS011;6972;51.518;6.918;2023-01-29T06:11:06;54.67;;;28.63;;
13801;SDS011;6972;51.518;6.918;2023-01-29T06:13:33;54.30;;;29.80;;
13801;SDS011;6972;51.518;6.918;2023-01-29T06:15:59;48.93;;;27.93;;
13801;SDS011;6972;51.518;6.918;2023-01-29T06:18:25;50.17;;;28.53;;
13801;SDS011;6972;51.518;6.918;2023-01-29T06:20:51;56.13;;;30.27;;
13801;SDS011;6972;51.518;6.918;2023-01-29T06:23:17;50.07;;;28.53;;
13801;SDS011;6972;51.518;6.918;2023-01-29T06:25:43;53.23;;;30.27;;
13801;SDS011;6972;51.518;6.918;2023-01-29T06:28:09;51.27;;;29.47;;
13801;SDS011;6972;51.518;6.918;2023-01-29T06:30:35;55.70;;;29.40;;
13801;SDS011;6972;51.518;6.918;2023-01-29T06:33:01;55.10;;;28.80;;
13801;SDS011;6972;51.518;6.918;2023-01-29T06:35:27;51.10;;;29.17;;
13801;SDS011;6972;51.518;6.918;2023-01-29T06:37:53;53.67;;;29.30;;
13801;SDS011;6972;51.518;6.918;2023-01-29T06:40:19;53.70;;;28.43;;
13801;SDS011;6972;51.518;6.918;2023-01-29T06:42:45;48.07;;;28.20;;
13801;SDS011;6972;51.518;6.918;2023-01-29T06:45:11;55.77;;;29.80;;
13801;SDS011;6972;51.518;6.918;2023-01-29T06:47:37;51.43;;;28.40;;
13801;SDS011;6972;51.518;6.918;2023-01-29T06:50:03;49.57;;;29.03;;
13801;SDS011;6972;51.518;6.918;2023-01-29T06:52:29;52.43;;;28.70;;
13801;SDS011;6972;51.518;6.918;2023-01-29T06:54:55;52.00;;;28.73;;
13801;SDS011;6972;51.518;6.918;2023-01-29T06:57:21;50.60;;;27.90;;
13801;SDS011;6972;51.518;6.918;2023-01-29T06:59:47;51.53;;;28.33;;
13801;SDS011;6972;51.518;6.918;2023-01-29T07:02:13;50.50;;;28.50;;
13801;SDS011;6972;51.518;6.918;2023-01-29T07:04:39;52.70;;;27.73;;
13801;SDS011;6972;51.518;6.918;2023-01-29T07:07:06;54.43;;;29.97;;
13801;SDS011;6972;51.518;6.918;2023-01-29T07:09:40;49.17;;;27.43;;
13801;SDS011;6972;51.518;6.918;2023-01-29T07:12:10;50.80;;;28.63;;
13801;SDS011;6972;51.518;6.918;2023-01-29T07:14:36;49.70;;;28.00;;
13801;SDS011;6972;51.518;6.918;2023-01-29T07:17:02;50.53;;;27.67;;
13801;SDS011;6972;51.518;6.918;2023-01-29T07:19:28;50.47;;;28.60;;
13801;SDS011;6972;51.518;6.918;2023-01-29T07:21:54;53.90;;;28.30;;
13801;SDS011;6972;51.518;6.918;2023-01-29T07:24:19;53.23;;;29.37;;
13801;SDS011;6972;51.518;6.918;2023-01-29T07:26:46;51.60;;;27.97;;
13801;SDS011;6972;51.518;6.918;2023-01-29T07:29:11;48.00;;;27.33;;
13801;SDS011;6972;51.518;6.918;2023-01-29T07:31:37;53.70;;;29.30;;
13801;SDS011;6972;51.518;6.918;2023-01-29T07:34:03;50.33;;;28.93;;
13801;SDS011;6972;51.518;6.918;2023-01-29T07:36:29;54.33;;;30.03;;
13801;SDS011;6972;51.518;6.918;2023-01-29T07:38:55;51.07;;;27.50;;
13801;SDS011;6972;51.518;6.918;2023-01-29T07:41:21;54.20;;;29.97;;
13801;SDS011;6972;51.518;6.918;2023-01-29T07:43:47;53.63;;;29.00;;
13801;SDS011;6972;51.518;6.918;2023-01-29T07:46:13;51.17;;;28.50;;
13801;SDS011;6972;51.518;6.918;2023-01-29T07:48:39;50.67;;;28.27;;
13801;SDS011;6972;51.518;6.918;2023-01-29T07:51:05;51.33;;;28.50;;
13801;SDS011;6972;51.518;6.918;2023-01-29T07:53:31;52.87;;;29.10;;
13801;SDS011;6972;51.518;6.918;2023-01-29T07:55:57;55.87;;;28.17;;
13801;SDS011;6972;51.518;6.918;2023-01-29T07:58:23;50.43;;;28.60;;
13801;SDS011;6972;51.518;6.918;2023-01-29T08:00:49;51.50;;;28.43;;
13801;SDS011;6972;51.518;6.918;2023-01-29T08:03:16;50.37;;;28.60;;
13801;SDS011;6972;51.518;6.918;2023-01-29T08:05:44;52.67;;;29.87;;
13801;SDS011;6972;51.518;6.918;2023-01-29T08:08:09;45.73;;;27.83;;
13801;SDS011;6972;51.518;6.918;2023-01-29T08:10:36;50.60;;;27.97;;
13801;SDS011;6972;51.518;6.918;2023-01-29T08:13:03;53.97;;;28.63;;
13801;SDS011;6972;51.518;6.918;2023-01-29T08:15:29;51.33;;;27.80;;
13801;SDS011;6972;51.518;6.918;2023-01-29T08:17:55;51.73;;;28.70;;
13801;SDS011;6972;51.518;6.918;2023-01-29T08:20:21;56.80;;;29.37;;
13801;SDS011;6972;51.518;6.918;2023-01-29T08:22:48;53.17;;;28.60;;
13801;SDS011;6972;51.518;6.918;2023-01-29T08:25:14;51.67;;;28.03;;
13801;SDS011;6972;51.518;6.918;2023-01-29T08:27:40;50.60;;;27.60;;
13801;SDS011;6972;51.518;6.918;2023-01-29T08:30:07;50.97;;;28.03;;
13801;SDS011;6972;51.518;6.918;2023-01-29T08:32:33;51.13;;;28.27;;
13801;SDS011;6972;51.518;6.918;2023-01-29T08:34:59;49.43;;;27.63;;
13801;SDS011;6972;51.518;6.918;2023-01-29T08:37:25;52.03;;;29.73;;
13801;SDS011;6972;51.518;6.918;2023-01-29T08:39:51;48.33;;;27.47;;
13801;SDS011;6972;51.518;6.918;2023-01-29T08:42:17;54.63;;;29.07;;
13801;SDS011;6972;51.518;6.918;2023-01-29T08:44:43;51.33;;;28.43;;
13801;SDS011;6972;51.518;6.918;2023-01-29T08:47:09;54.43;;;29.07;;
13801;SDS011;6972;51.518;6.918;2023-01-29T08:49:34;55.53;;;28.30;;
13801;SDS011;6972;51.518;6.918;2023-01-29T08:52:00;52.87;;;28.33;;
13801;SDS011;6972;51.518;6.918;2023-01-29T08:54:26;49.33;;;28.77;;
13801;SDS011;6972;51.518;6.918;2023-01-29T08:56:52;50.50;;;29.03;;
13801;SDS011;6972;51.518;6.918;2023-01-29T08:59:18;53.93;;;28.33;;
13801;SDS011;6972;51.518;6.918;2023-01-29T09:01:44;51.33;;;29.30;;
13801;SDS011;6972;51.518;6.918;2023-01-29T09:04:09;54.03;;;29.80;;
13801;SDS011;6972;51.518;6.918;2023-01-29T09:06:35;52.33;;;30.10;;
13801;SDS011;6972;51.518;6.918;2023-01-29T09:09:01;50.20;;;28.83;;
13801;SDS011;6972;51.518;6.918;2023-01-29T09:11:27;49.73;;;28.10;;
13801;SDS011;6972;51.518;6.918;2023-01-29T09:13:53;48.87;;;28.90;;
13801;SDS011;6972;51.518;6.918;2023-01-29T09:16:22;51.30;;;29.23;;
13801;SDS011;6972;51.518;6.918;2023-01-29T09:18:48;55.20;;;29.87;;
13801;SDS011;6972;51.518;6.918;2023-01-29T09:21:13;50.33;;;29.23;;
13801;SDS011;6972;51.518;6.918;2023-01-29T09:23:39;50.23;;;27.97;;
13801;SDS011;6972;51.518;6.918;2023-01-29T09:26:06;54.00;;;29.27;;
13801;SDS011;6972;51.518;6.918;2023-01-29T09:28:32;53.80;;;29.20;;
13801;SDS011;6972;51.518;6.918;2023-01-29T09:31:01;52.60;;;29.20;;
13801;SDS011;6972;51.518;6.918;2023-01-29T09:33:27;52.10;;;29.33;;
13801;SDS011;6972;51.518;6.918;2023-01-29T09:35:54;54.30;;;29.23;;
13801;SDS011;6972;51.518;6.918;2023-01-29T09:38:20;54.43;;;30.50;;
13801;SDS011;6972;51.518;6.918;2023-01-29T09:43:18;50.97;;;28.57;;
13801;SDS011;6972;51.518;6.918;2023-01-29T09:48:43;54.17;;;30.40;;
13801;SDS011;6972;51.518;6.918;2023-01-29T09:51:13;50.47;;;29.20;;
13801;SDS011;6972;51.518;6.918;2023-01-29T09:53:50;54.17;;;28.40;;
13801;SDS011;6972;51.518;6.918;2023-01-29T09:56:22;48.43;;;27.97;;
13801;SDS011;6972;51.518;6.918;2023-01-29T09:58:53;53.30;;;29.60;;
13801;SDS011;6972;51.518;6.918;2023-01-29T10:01:24;52.17;;;28.90;;
13801;SDS011;6972;51.518;6.918;2023-01-29T10:15:37;53.90;;;29.43;;
13801;SDS011;6972;51.518;6.918;2023-01-29T10:21:22;51.17;;;28.17;;
13801;SDS011;6972;51.518;6.918;2023-01-29T10:26:25;50.10;;;28.57;;
13801;SDS011;6972;51.518;6.918;2023-01-29T10:28:52;56.33;;;28.93;;
13801;SDS011;6972;51.518;6.918;2023-01-29T10:31:25;49.53;;;28.80;;
13801;SDS011;6972;51.518;6.918;2023-01-29T10:34:00;49.67;;;28.03;;
13801;SDS011;6972;51.518;6.918;2023-01-29T10:36:32;47.87;;;27.97;;
13801;SDS011;6972;51.518;6.918;2023-01-29T10:39:02;48.63;;;27.53;;
13801;SDS011;6972;51.518;6.918;2023-01-29T10:41:39;51.23;;;28.70;;
13801;SDS011;6972;51.518;6.918;2023-01-29T10:44:16;47.93;;;27.90;;
13801;SDS011;6972;51.518;6.918;2023-01-29T10:49:50;47.17;;;27.70;;
13801;SDS011;6972;51.518;6.918;2023-01-29T11:00:40;46.27;;;27.17;;
13801;SDS011;6972;51.518;6.918;2023-01-29T11:03:21;51.60;;;27.93;;
13801;SDS011;6972;51.518;6.918;2023-01-29T11:05:50;51.90;;;27.57;;
13801;SDS011;6972;51.518;6.918;2023-01-29T11:08:30;48.23;;;28.17;;
13801;SDS011;6972;51.518;6.918;2023-01-29T11:11:07;51.93;;;28.23;;
13801;SDS011;6972;51.518;6.918;2023-01-29T11:13:39;51.37;;;27.53;;
13801;SDS011;6972;51.518;6.918;2023-01-29T11:16:12;49.83;;;26.67;;
13801;SDS011;6972;51.518;6.918;2023-01-29T11:18:57;50.07;;;27.63;;
13801;SDS011;6972;51.518;6.918;2023-01-29T11:21:25;51.17;;;28.07;;
13801;SDS011;6972;51.518;6.918;2023-01-29T11:26:51;47.63;;;25.97;;
13801;SDS011;6972;51.518;6.918;2023-01-29T11:32:23;45.80;;;26.30;;
13801;SDS011;6972;51.518;6.918;2023-01-29T11:37:21;48.87;;;26.13;;
13801;SDS011;6972;51.518;6.918;2023-01-29T11:39:47;46.63;;;27.13;;
13801;SDS011;6972;51.518;6.918;2023-01-29T11:42:18;52.63;;;27.13;;
13801;SDS011;6972;51.518;6.918;2023-01-29T11:44:45;46.60;;;26.67;;
13801;SDS011;6972;51.518;6.918;2023-01-29T11:49:37;44.33;;;26.10;;
13801;SDS011;6972;51.518;6.918;2023-01-29T11:52:06;52.17;;;27.90;;
13801;SDS011;6972;51.518;6.918;2023-01-29T11:54:35;44.53;;;25.90;;
13801;SDS011;6972;51.518;6.918;2023-01-29T11:57:14;42.07;;;25.53;;
13801;SDS011;6972;51.518;6.918;2023-01-29T12:00:06;43.83;;;25.57;;
13801;SDS011;6972;51.518;6.918;2023-01-29T12:02:45;46.77;;;26.23;;
13801;SDS011;6972;51.518;6.918;2023-01-29T12:05:15;49.30;;;26.90;;
13801;SDS011;6972;51.518;6.918;2023-01-29T12:07:44;46.03;;;25.90;;
13801;SDS011;6972;51.518;6.918;2023-01-29T12:15:44;50.70;;;27.30;;
13801;SDS011;6972;51.518;6.918;2023-01-29T12:21:37;45.23;;;26.70;;
13801;SDS011;6972;51.518;6.918;2023-01-29T12:24:21;42.53;;;25.63;;
13801;SDS011;6972;51.518;6.918;2023-01-29T12:29:48;48.93;;;26.30;;
13801;SDS011;6972;51.518;6.918;2023-01-29T12:35:01;49.27;;;25.73;;
13801;SDS011;6972;51.518;6.918;2023-01-29T12:37:40;44.53;;;25.90;;
13801;SDS011;6972;51.518;6.918;2023-01-29T12:40:32;46.70;;;27.07;;
13801;SDS011;6972;51.518;6.918;2023-01-29T12:43:06;45.97;;;26.20;;
13801;SDS011;6972;51.518;6.918;2023-01-29T12:45:40;45.63;;;25.73;;
13801;SDS011;6972;51.518;6.918;2023-01-29T12:48:08;44.50;;;26.17;;
13801;SDS011;6972;51.518;6.918;2023-01-29T12:50:37;43.47;;;25.13;;
13801;SDS011;6972;51.518;6.918;2023-01-29T12:55:37;51.37;;;26.00;;
13801;SDS011;6972;51.518;6.918;2023-01-29T12:59:09;44.27;;;26.27;;
13801;SDS011;6972;51.518;6.918;2023-01-29T13:01:52;47.77;;;26.07;;
13801;SDS011;6972;51.518;6.918;2023-01-29T13:04:05;43.90;;;24.73;;
13801;SDS011;6972;51.518;6.918;2023-01-29T13:06:50;48.30;;;26.20;;
13801;SDS011;6972;51.518;6.918;2023-01-29T13:09:24;44.20;;;24.90;;
13801;SDS011;6972;51.518;6.918;2023-01-29T13:14:21;43.37;;;24.60;;
13801;SDS011;6972;51.518;6.918;2023-01-29T13:17:02;47.77;;;25.03;;
13801;SDS011;6972;51.518;6.918;2023-01-29T13:19:50;44.53;;;24.37;;
13801;SDS011;6972;51.518;6.918;2023-01-29T13:22:20;43.10;;;24.80;;
13801;SDS011;6972;51.518;6.918;2023-01-29T13:24:49;48.73;;;24.83;;
13801;SDS011;6972;51.518;6.918;2023-01-29T13:27:18;45.23;;;25.23;;
13801;SDS011;6972;51.518;6.918;2023-01-29T13:29:52;44.57;;;24.50;;
13801;SDS011;6972;51.518;6.918;2023-01-29T13:32:26;43.40;;;24.73;;
13801;SDS011;6972;51.518;6.918;2023-01-29T13:35:10;45.63;;;25.27;;
13801;SDS011;6972;51.518;6.918;2023-01-29T13:37:41;44.60;;;24.90;;
13801;SDS011;6972;51.518;6.918;2023-01-29T13:40:23;46.30;;;25.53;;
13801;SDS011;6972;51.518;6.918;2023-01-29T13:42:51;44.73;;;26.17;;
13801;SDS011;6972;51.518;6.918;2023-01-29T13:45:24;44.33;;;25.50;;
13801;SDS011;6972;51.518;6.918;2023-01-29T13:48:08;45.23;;;25.70;;
13801;SDS011;6972;51.518;6.918;2023-01-29T13:51:01;45.70;;;24.20;;
13801;SDS011;6972;51.518;6.918;2023-01-29T13:53:33;46.47;;;25.20;;
13801;SDS011;6972;51.518;6.918;2023-01-29T13:58:59;46.60;;;25.17;;
13801;SDS011;6972;51.518;6.918;2023-01-29T14:04:31;43.53;;;24.80;;
13801;SDS011;6972;51.518;6.918;2023-01-29T14:06:57;43.17;;;24.70;;
13801;SDS011;6972;51.518;6.918;2023-01-29T14:09:56;45.83;;;24.90;;
13801;SDS011;6972;51.518;6.918;2023-01-29T14:12:37;40.63;;;24.70;;
13801;SDS011;6972;51.518;6.918;2023-01-29T14:15:15;45.60;;;25.83;;
13801;SDS011;6972;51.518;6.918;2023-01-29T14:17:54;44.77;;;23.63;;
13801;SDS011;6972;51.518;6.918;2023-01-29T14:20:40;45.90;;;25.13;;
13801;SDS011;6972;51.518;6.918;2023-01-29T14:26:05;44.93;;;24.57;;
13801;SDS011;6972;51.518;6.918;2023-01-29T14:28:51;43.03;;;25.10;;
13801;SDS011;6972;51.518;6.918;2023-01-29T14:31:37;41.67;;;23.70;;
13801;SDS011;6972;51.518;6.918;2023-01-29T14:34:04;46.47;;;25.63;;
13801;SDS011;6972;51.518;6.918;2023-01-29T14:36:39;44.07;;;24.63;;
13801;SDS011;6972;51.518;6.918;2023-01-29T14:39:18;45.63;;;24.63;;
13801;SDS011;6972;51.518;6.918;2023-01-29T14:41:59;43.57;;;24.23;;
13801;SDS011;6972;51.518;6.918;2023-01-29T14:53:43;42.30;;;24.17;;
13801;SDS011;6972;51.518;6.918;2023-01-29T14:58:23;41.67;;;23.77;;
13801;SDS011;6972;51.518;6.918;2023-01-29T15:00:55;39.43;;;23.73;;
13801;SDS011;6972;51.518;6.918;2023-01-29T15:03:34;40.67;;;23.00;;
13801;SDS011;6972;51.518;6.918;2023-01-29T15:06:01;43.90;;;24.17;;
13801;SDS011;6972;51.518;6.918;2023-01-29T15:08:31;43.13;;;23.80;;
13801;SDS011;6972;51.518;6.918;2023-01-29T15:11:03;41.73;;;22.90;;
13801;SDS011;6972;51.518;6.918;2023-01-29T15:16:47;41.83;;;23.03;;
13801;SDS011;6972;51.518;6.918;2023-01-29T15:27:37;45.40;;;22.77;;
13801;SDS011;6972;51.518;6.918;2023-01-29T15:30:06;46.47;;;22.53;;
13801;SDS011;6972;51.518;6.918;2023-01-29T15:32:38;41.00;;;22.67;;
13801;SDS011;6972;51.518;6.918;2023-01-29T15:35:09;39.63;;;22.10;;
13801;SDS011;6972;51.518;6.918;2023-01-29T15:37:40;38.70;;;22.53;;
13801;SDS011;6972;51.518;6.918;2023-01-29T15:40:11;41.30;;;21.33;;
13801;SDS011;6972;51.518;6.918;2023-01-29T15:42:41;40.90;;;22.77;;
13801;SDS011;6972;51.518;6.918;2023-01-29T15:45:29;37.73;;;22.13;;
13801;SDS011;6972;51.518;6.918;2023-01-29T15:48:01;41.67;;;22.73;;
13801;SDS011;6972;51.518;6.918;2023-01-29T15:50:30;35.23;;;20.93;;
13801;SDS011;6972;51.518;6.918;2023-01-29T15:52:59;42.30;;;22.23;;
13801;SDS011;6972;51.518;6.918;2023-01-29T15:55:30;34.90;;;20.77;;
13801;SDS011;6972;51.518;6.918;2023-01-29T15:57:56;40.00;;;21.27;;
13801;SDS011;6972;51.518;6.918;2023-01-29T16:00:24;36.93;;;21.07;;
13801;SDS011;6972;51.518;6.918;2023-01-29T16:02:52;38.67;;;20.97;;
13801;SDS011;6972;51.518;6.918;2023-01-29T16:05:20;35.10;;;21.03;;
13801;SDS011;6972;51.518;6.918;2023-01-29T16:07:49;38.97;;;21.37;;
13801;SDS011;6972;51.518;6.918;2023-01-29T16:10:17;36.93;;;20.07;;
13801;SDS011;6972;51.518;6.918;2023-01-29T16:12:48;35.63;;;20.80;;
13801;SDS011;6972;51.518;6.918;2023-01-29T16:18:03;33.43;;;19.77;;
13801;SDS011;6972;51.518;6.918;2023-01-29T16:20:43;35.40;;;20.13;;
13801;SDS011;6972;51.518;6.918;2023-01-29T16:23:18;36.10;;;20.40;;
13801;SDS011;6972;51.518;6.918;2023-01-29T16:25:47;34.77;;;19.50;;
13801;SDS011;6972;51.518;6.918;2023-01-29T16:28:13;36.73;;;19.93;;
13801;SDS011;6972;51.518;6.918;2023-01-29T16:30:40;35.30;;;19.40;;
13801;SDS011;6972;51.518;6.918;2023-01-29T16:33:06;33.40;;;18.73;;
13801;SDS011;6972;51.518;6.918;2023-01-29T16:35:37;35.50;;;20.20;;
13801;SDS011;6972;51.518;6.918;2023-01-29T16:38:05;34.80;;;19.10;;
13801;SDS011;6972;51.518;6.918;2023-01-29T16:41:07;34.67;;;18.53;;
13801;SDS011;6972;51.518;6.918;2023-01-29T16:46:17;34.27;;;19.43;;
13801;SDS011;6972;51.518;6.918;2023-01-29T16:48:55;37.17;;;18.40;;
13801;SDS011;6972;51.518;6.918;2023-01-29T16:51:23;31.63;;;18.87;;
13801;SDS011;6972;51.518;6.918;2023-01-29T16:53:54;35.27;;;18.53;;
13801;SDS011;6972;51.518;6.918;2023-01-29T16:56:37;31.80;;;18.57;;
13801;SDS011;6972;51.518;6.918;2023-01-29T16:59:04;32.87;;;18.40;;
13801;SDS011;6972;51.518;6.918;2023-01-29T17:01:30;34.07;;;18.93;;
13801;SDS011;6972;51.518;6.918;2023-01-29T17:04:14;32.47;;;18.13;;
13801;SDS011;6972;51.518;6.918;2023-01-29T17:06:43;34.40;;;18.37;;
13801;SDS011;6972;51.518;6.918;2023-01-29T17:09:22;30.87;;;17.73;;
13801;SDS011;6972;51.518;6.918;2023-01-29T17:11:52;35.40;;;18.70;;
13801;SDS011;6972;51.518;6.918;2023-01-29T17:14:21;37.13;;;18.33;;
13801;SDS011;6972;51.518;6.918;2023-01-29T17:16:49;33.30;;;18.13;;
13801;SDS011;6972;51.518;6.918;2023-01-29T17:19:17;34.13;;;17.37;;
13801;SDS011;6972;51.518;6.918;2023-01-29T17:21:44;31.17;;;18.00;;
13801;SDS011;6972;51.518;6.918;2023-01-29T17:24:10;37.53;;;18.53;;
13801;SDS011;6972;51.518;6.918;2023-01-29T17:26:36;32.47;;;17.83;;
13801;SDS011;6972;51.518;6.918;2023-01-29T17:29:02;33.57;;;19.00;;
13801;SDS011;6972;51.518;6.918;2023-01-29T17:31:28;34.17;;;19.17;;
13801;SDS011;6972;51.518;6.918;2023-01-29T17:33:54;33.77;;;19.03;;